createdAt,value
2023-08-14T12:10:25.998Z,97528.94
2023-08-14T12:12:55.887Z,97525.44
2023-08-14T12:15:25.053Z,97522.81
2023-08-14T12:17:52.803Z,97524.72
2023-08-14T12:20:22.460Z,97518.59
2023-08-14T12:22:55.354Z,97521.88
2023-08-14T12:25:29.533Z,97514.84
2023-08-14T12:27:56.528Z,97508.75
2023-08-14T12:30:23.523Z,97508.59
2023-08-14T12:32:50.879Z,97503.41
2023-08-14T12:35:17.902Z,97501.09
2023-08-14T12:37:44.795Z,97503.63
2023-08-14T12:40:12.303Z,97500.53
2023-08-14T12:42:41.029Z,97503.44
2023-08-14T12:45:08.755Z,97498.25
2023-08-14T12:47:35.785Z,97498.38
2023-08-14T12:50:02.857Z,97499.16
2023-08-14T12:52:30.696Z,97494.00
2023-08-14T12:57:28.851Z,97493.19
2023-08-14T12:59:57.523Z,97497.06
2023-08-14T13:04:54.911Z,97497.34
2023-08-14T13:07:23.955Z,97493.84
2023-08-14T13:09:51.927Z,97493.34
2023-08-14T13:12:18.932Z,97490.56
2023-08-14T13:14:46.661Z,97479.88
2023-08-14T13:17:17.230Z,97489.59
2023-08-14T13:19:44.848Z,97491.88
2023-08-14T13:22:12.410Z,97476.50
2023-08-14T13:24:39.398Z,97479.16
2023-08-14T13:27:09.629Z,97478.19
2023-08-14T13:29:43.807Z,97478.84
2023-08-14T13:32:11.393Z,97463.94
2023-08-14T13:34:39.714Z,97466.53
2023-08-14T13:37:07.112Z,97468.53
2023-08-14T13:39:34.565Z,97465.56
2023-08-14T13:42:02.142Z,97464.88
2023-08-14T13:44:29.504Z,97454.28
2023-08-14T13:46:56.855Z,97452.16
2023-08-14T13:49:24.174Z,97459.63
2023-08-14T13:51:52.893Z,97453.16
2023-08-14T13:54:19.949Z,97452.81
2023-08-14T13:56:47.073Z,97456.53
2023-08-14T13:59:14.012Z,97456.22
2023-08-14T14:01:40.926Z,97454.31
2023-08-14T14:04:08.833Z,97461.41
2023-08-14T14:06:35.820Z,97456.22
2023-08-14T14:09:07.373Z,97446.66
2023-08-14T14:11:34.597Z,97445.25
2023-08-14T14:14:01.663Z,97442.81
2023-08-14T14:16:52.412Z,97454.81
2023-08-14T14:19:19.882Z,97454.47
2023-08-14T14:21:47.444Z,97444.09
2023-08-14T14:24:16.024Z,97450.25
2023-08-14T14:26:43.196Z,97436.66
2023-08-14T14:29:10.389Z,97441.84
2023-08-14T14:31:37.651Z,97447.63
2023-08-14T14:34:06.669Z,97438.47
2023-08-14T14:36:34.695Z,97425.81
2023-08-14T14:39:02.351Z,97435.69
2023-08-14T14:41:31.815Z,97439.25
2023-08-14T14:43:58.935Z,97426.44
2023-08-14T14:46:25.947Z,97433.56
2023-08-14T14:48:53.284Z,97430.00
2023-08-14T14:51:20.526Z,97434.34
2023-08-14T14:53:47.695Z,97426.16
2023-08-14T14:56:15.997Z,97424.38
2023-08-14T14:58:44.487Z,97430.28
2023-08-14T15:01:11.457Z,97423.78
2023-08-14T15:03:38.501Z,97422.53
2023-08-14T15:06:05.870Z,97429.63
2023-08-14T15:08:33.017Z,97421.94
2023-08-14T15:11:00.511Z,97427.38
2023-08-14T15:13:27.873Z,97419.44
2023-08-14T15:15:56.614Z,97413.72
2023-08-14T15:18:23.740Z,97419.13
2023-08-14T15:20:50.996Z,97419.50
2023-08-14T15:23:18.279Z,97414.50
2023-08-14T15:25:46.116Z,97418.03
2023-08-14T15:28:14.108Z,97416.53
2023-08-14T15:30:42.874Z,97418.00
2023-08-14T15:33:13.794Z,97409.31
2023-08-14T15:35:40.940Z,97406.66
2023-08-14T15:38:08.353Z,97416.22
2023-08-14T15:40:36.015Z,97413.88
2023-08-14T15:43:03.786Z,97422.94
2023-08-14T15:45:30.810Z,97422.19
2023-08-14T15:47:57.841Z,97422.28
2023-08-14T15:50:26.274Z,97425.88
2023-08-14T15:52:53.539Z,97417.47
2023-08-14T15:55:20.606Z,97421.63
2023-08-14T15:57:48.013Z,97430.06
2023-08-14T16:00:15.831Z,97418.06
2023-08-14T16:02:42.928Z,97424.59
2023-08-14T16:05:10.746Z,97437.09
2023-08-14T16:07:39.546Z,97432.41
2023-08-14T16:10:07.511Z,97429.09
2023-08-14T16:12:34.750Z,97429.06
2023-08-14T16:15:01.842Z,97426.59
2023-08-14T16:17:29.297Z,97427.31
2023-08-14T16:19:56.933Z,97428.69
2023-08-14T16:22:24.152Z,97425.13
2023-08-14T16:24:53.112Z,97427.03
2023-08-14T16:27:20.399Z,97429.22
2023-08-14T16:29:48.030Z,97422.06
2023-08-14T16:32:15.811Z,97420.00
2023-08-14T16:34:42.941Z,97413.38
2023-08-14T16:37:10.432Z,97422.56
2023-08-14T16:39:37.468Z,97419.75
2023-08-14T16:42:06.514Z,97430.75
2023-08-14T16:44:34.103Z,97436.06
2023-08-14T16:47:03.173Z,97429.03
2023-08-14T16:49:30.454Z,97427.50
2023-08-14T16:51:57.458Z,97428.09
2023-08-14T16:54:24.664Z,97426.94
2023-08-14T16:56:52.340Z,97421.63
2023-08-14T16:59:21.592Z,97420.34
2023-08-14T17:01:48.844Z,97420.41
2023-08-14T17:04:16.574Z,97423.56
2023-08-14T17:06:44.354Z,97423.31
2023-08-14T17:09:12.006Z,97428.09
2023-08-14T17:11:39.228Z,97437.91
2023-08-14T17:14:06.993Z,97430.94
2023-08-14T17:16:36.780Z,97427.47
2023-08-14T17:19:04.814Z,97422.84
2023-08-14T17:21:32.510Z,97426.06
2023-08-14T17:23:59.618Z,97424.38
2023-08-14T17:26:27.280Z,97430.25
2023-08-14T17:28:55.031Z,97430.25
2023-08-14T17:31:22.665Z,97429.25
2023-08-14T17:33:54.629Z,97430.28
2023-08-14T17:36:23.163Z,97440.41
2023-08-14T17:38:50.331Z,97445.56
2023-08-14T17:41:17.474Z,97443.63
2023-08-14T17:43:45.194Z,97449.31
2023-08-14T17:46:12.864Z,97447.22
2023-08-14T17:48:42.793Z,97445.31
2023-08-14T17:51:14.149Z,97459.47
2023-08-14T17:53:41.990Z,97450.84
2023-08-14T17:56:09.896Z,97456.13
2023-08-14T17:58:37.728Z,97458.69
2023-08-14T18:01:05.528Z,97462.66
2023-08-14T18:03:32.777Z,97454.22
2023-08-14T18:06:01.864Z,97460.06
2023-08-14T18:08:32.045Z,97462.97
2023-08-14T18:11:02.335Z,97466.06
2023-08-14T18:13:30.891Z,97454.09
2023-08-14T18:16:00.586Z,97465.03
2023-08-14T18:18:28.744Z,97468.16
2023-08-14T18:20:56.764Z,97476.38
2023-08-14T18:23:25.104Z,97473.69
2023-08-14T18:25:57.330Z,97481.06
2023-08-14T18:28:27.721Z,97469.88
2023-08-14T18:30:55.698Z,97471.72
2023-08-14T18:33:23.357Z,97480.75
2023-08-14T18:35:50.817Z,97489.75
2023-08-14T18:38:18.543Z,97492.78
2023-08-14T18:40:47.151Z,97496.25
2023-08-14T18:43:18.280Z,97497.25
2023-08-14T18:45:47.984Z,97493.28
2023-08-14T18:48:17.924Z,97505.16
